Terminal Aerodrome Forecast
Issued by NWS

Current Version | Previous Version | Text Only | Print | Product List | Glossary Off
Versions: 1 2 3 4 5 6 7 8 9 10 11 12 13 14 15 16 17 18 19 20 21 22 23 24

634
FTUS41 KILN 190324 AAA
TAFLUK
TAF AMD
KLUK 190324Z 1903/1924 VRB03KT P6SM OVC015
      TEMPO 1906/1908 BKN025
     FM190800 14003KT P6SM OVC250
     FM191400 12005KT P6SM OVC120
     FM192200 12006KT P6SM VCSH OVC045
      TEMPO 1923/1924 5SM -RA OVC020=

USA.gov is the U.S. government's official web portal to all federal, state and local government web resources and services.